sensor_id;sensor_type;location;lat;lon;timestamp;pressure;altitude;pressure_sealevel;temperature;humidity
65280;BME280;51878;55.748;48.742;2023-05-24T00:02:49;99818.97;;;16.46;45.88
65280;BME280;51878;55.748;48.742;2023-05-24T00:07:51;99830.34;;;16.49;45.78
65280;BME280;51878;55.748;48.742;2023-05-24T00:12:54;99749.88;;;15.99;45.80
65280;BME280;51878;55.748;48.742;2023-05-24T00:17:58;99755.09;;;16.07;45.77
65280;BME280;51878;55.748;48.742;2023-05-24T00:23:01;99763.53;;;16.12;45.89
65280;BME280;51878;55.748;48.742;2023-05-24T00:28:03;99823.63;;;16.45;45.96
65280;BME280;51878;55.748;48.742;2023-05-24T00:33:05;99817.94;;;16.40;46.38
65280;BME280;51878;55.748;48.742;2023-05-24T00:38:07;99818.78;;;16.47;46.50
65280;BME280;51878;55.748;48.742;2023-05-24T00:43:10;99771.06;;;16.23;46.58
65280;BME280;51878;55.748;48.742;2023-05-24T00:48:12;99762.63;;;16.18;46.69
65280;BME280;51878;55.748;48.742;2023-05-24T00:53:15;99824.41;;;16.59;46.51
65280;BME280;51878;55.748;48.742;2023-05-24T00:58:17;99703.66;;;15.84;46.80
65280;BME280;51878;55.748;48.742;2023-05-24T01:03:19;99802.16;;;16.36;47.29
65280;BME280;51878;55.748;48.742;2023-05-24T01:18:59;99663.56;;;15.38;48.08
65280;BME280;51878;55.748;48.742;2023-05-24T01:24:16;99786.25;;;16.13;48.45
65280;BME280;51878;55.748;48.742;2023-05-24T01:29:21;99766.69;;;16.02;48.35
65280;BME280;51878;55.748;48.742;2023-05-24T01:34:27;99825.09;;;16.41;48.86
65280;BME280;51878;55.748;48.742;2023-05-24T01:39:29;99815.22;;;16.33;48.81
65280;BME280;51878;55.748;48.742;2023-05-24T01:44:46;99764.38;;;16.06;48.93
65280;BME280;51878;55.748;48.742;2023-05-24T01:49:51;99752.81;;;16.04;49.20
65280;BME280;51878;55.748;48.742;2023-05-24T01:54:55;99825.69;;;16.50;49.26
65280;BME280;51878;55.748;48.742;2023-05-24T01:59:59;99743.16;;;16.01;49.09
65280;BME280;51878;55.748;48.742;2023-05-24T02:05:06;99817.88;;;16.60;49.37
65280;BME280;51878;55.748;48.742;2023-05-24T02:10:09;99804.59;;;16.57;49.47
65280;BME280;51878;55.748;48.742;2023-05-24T02:15:11;99764.44;;;16.44;49.59
65280;BME280;51878;55.748;48.742;2023-05-24T02:20:15;99797.16;;;16.71;49.69
65280;BME280;51878;55.748;48.742;2023-05-24T02:25:18;99754.50;;;16.57;49.56
65280;BME280;51878;55.748;48.742;2023-05-24T02:30:21;99742.47;;;16.58;49.46
65280;BME280;51878;55.748;48.742;2023-05-24T02:35:23;99799.53;;;17.06;49.67
65280;BME280;51878;55.748;48.742;2023-05-24T02:40:25;99813.34;;;17.24;49.59
65280;BME280;51878;55.748;48.742;2023-05-24T02:45:27;99806.53;;;17.33;49.12
65280;BME280;51878;55.748;48.742;2023-05-24T02:50:30;99722.75;;;16.87;48.82
65280;BME280;51878;55.748;48.742;2023-05-24T02:55:32;99813.16;;;17.51;48.33
65280;BME280;51878;55.748;48.742;2023-05-24T03:00:34;99821.69;;;17.61;48.11
65280;BME280;51878;55.748;48.742;2023-05-24T03:05:37;99801.34;;;17.75;47.26
65280;BME280;51878;55.748;48.742;2023-05-24T03:10:39;99758.56;;;17.68;47.01
65280;BME280;51878;55.748;48.742;2023-05-24T03:15:41;99683.28;;;17.45;46.64
65280;BME280;51878;55.748;48.742;2023-05-24T03:20:44;99757.06;;;18.15;45.91
65280;BME280;51878;55.748;48.742;2023-05-24T03:25:46;99626.38;;;17.59;45.56
65280;BME280;51878;55.748;48.742;2023-05-24T03:30:48;99747.41;;;18.62;44.60
65280;BME280;51878;55.748;48.742;2023-05-24T03:35:50;99805.31;;;19.09;44.82
65280;BME280;51878;55.748;48.742;2023-05-24T03:40:53;99724.59;;;18.61;44.81
65280;BME280;51878;55.748;48.742;2023-05-24T03:45:55;99739.59;;;18.77;45.28
65280;BME280;51878;55.748;48.742;2023-05-24T03:50:57;99798.16;;;19.19;44.81
65280;BME280;51878;55.748;48.742;2023-05-24T03:56:00;99783.94;;;19.11;44.72
65280;BME280;51878;55.748;48.742;2023-05-24T04:01:02;99809.47;;;19.41;43.80
65280;BME280;51878;55.748;48.742;2023-05-24T04:06:05;99748.59;;;19.26;43.81
65280;BME280;51878;55.748;48.742;2023-05-24T04:11:07;99707.09;;;19.16;43.57
65280;BME280;51878;55.748;48.742;2023-05-24T04:16:10;99786.94;;;19.98;43.28
65280;BME280;51878;55.748;48.742;2023-05-24T04:21:14;99711.06;;;19.91;42.83
65280;BME280;51878;55.748;48.742;2023-05-24T04:26:17;99792.25;;;20.64;42.51
65280;BME280;51878;55.748;48.742;2023-05-24T04:31:19;99753.69;;;20.64;42.76
65280;BME280;51878;55.748;48.742;2023-05-24T04:36:25;99782.72;;;21.12;42.45
65280;BME280;51878;55.748;48.742;2023-05-24T04:41:27;99775.56;;;21.45;42.09
65280;BME280;51878;55.748;48.742;2023-05-24T04:46:32;99778.75;;;21.87;41.17
65280;BME280;51878;55.748;48.742;2023-05-24T04:51:37;99784.81;;;22.06;40.92
65280;BME280;51878;55.748;48.742;2023-05-24T04:56:39;99780.97;;;22.07;40.03
65280;BME280;51878;55.748;48.742;2023-05-24T05:01:42;99793.09;;;22.23;39.77
65280;BME280;51878;55.748;48.742;2023-05-24T05:06:44;99774.84;;;22.05;40.34
65280;BME280;51878;55.748;48.742;2023-05-24T05:11:47;99778.38;;;22.01;39.25
65280;BME280;51878;55.748;48.742;2023-05-24T05:16:49;99745.03;;;21.69;39.01
65280;BME280;51878;55.748;48.742;2023-05-24T05:21:51;99739.09;;;21.60;39.67
65280;BME280;51878;55.748;48.742;2023-05-24T05:26:54;99653.75;;;21.19;39.63
65280;BME280;51878;55.748;48.742;2023-05-24T05:31:56;99742.72;;;21.99;39.72
65280;BME280;51878;55.748;48.742;2023-05-24T05:36:59;99693.59;;;21.79;39.94
65280;BME280;51878;55.748;48.742;2023-05-24T05:42:01;99725.69;;;22.24;40.26
65280;BME280;51878;55.748;48.742;2023-05-24T05:47:03;99770.41;;;22.65;39.64
65280;BME280;51878;55.748;48.742;2023-05-24T05:52:08;99792.81;;;23.13;38.83
65280;BME280;51878;55.748;48.742;2023-05-24T05:57:10;99807.63;;;23.29;38.92
65280;BME280;51878;55.748;48.742;2023-05-24T06:02:12;99694.06;;;22.86;36.95
65280;BME280;51878;55.748;48.742;2023-05-24T06:07:18;99796.19;;;23.80;36.19
65280;BME280;51878;55.748;48.742;2023-05-24T06:12:20;99777.25;;;24.04;35.27
65280;BME280;51878;55.748;48.742;2023-05-24T06:17:23;99741.84;;;24.16;34.25
65280;BME280;51878;55.748;48.742;2023-05-24T06:22:25;99749.38;;;24.26;34.56
65280;BME280;51878;55.748;48.742;2023-05-24T06:27:31;99761.88;;;24.33;34.53
65280;BME280;51878;55.748;48.742;2023-05-24T06:32:34;99782.44;;;24.43;34.19
65280;BME280;51878;55.748;48.742;2023-05-24T06:37:39;99734.41;;;24.22;34.61
65280;BME280;51878;55.748;48.742;2023-05-24T06:42:41;99789.50;;;24.61;34.21
65280;BME280;51878;55.748;48.742;2023-05-24T06:47:44;99785.97;;;24.86;34.55
65280;BME280;51878;55.748;48.742;2023-05-24T06:52:46;99777.66;;;24.81;34.70
65280;BME280;51878;55.748;48.742;2023-05-24T06:57:48;99734.31;;;24.64;34.72
65280;BME280;51878;55.748;48.742;2023-05-24T07:02:51;99781.28;;;24.97;33.52
65280;BME280;51878;55.748;48.742;2023-05-24T07:07:53;99740.69;;;24.65;33.21
65280;BME280;51878;55.748;48.742;2023-05-24T07:12:55;99810.72;;;25.08;32.07
65280;BME280;51878;55.748;48.742;2023-05-24T07:18:00;99779.44;;;25.28;32.81
65280;BME280;51878;55.748;48.742;2023-05-24T07:23:03;99776.66;;;25.84;32.81
65280;BME280;51878;55.748;48.742;2023-05-24T07:28:05;99690.00;;;25.62;31.23
65280;BME280;51878;55.748;48.742;2023-05-24T07:33:08;99690.25;;;25.70;31.43
65280;BME280;51878;55.748;48.742;2023-05-24T07:38:10;99738.44;;;26.41;30.48
65280;BME280;51878;55.748;48.742;2023-05-24T07:43:14;99638.78;;;26.09;28.00
65280;BME280;51878;55.748;48.742;2023-05-24T07:48:16;99720.13;;;26.35;27.66
65280;BME280;51878;55.748;48.742;2023-05-24T07:53:18;99749.13;;;26.84;26.02
65280;BME280;51878;55.748;48.742;2023-05-24T07:58:20;99760.38;;;27.03;26.42
65280;BME280;51878;55.748;48.742;2023-05-24T08:03:23;99730.44;;;27.29;26.19
65280;BME280;51878;55.748;48.742;2023-05-24T08:08:26;99745.94;;;27.45;25.48
65280;BME280;51878;55.748;48.742;2023-05-24T08:13:29;99763.09;;;27.87;24.26
65280;BME280;51878;55.748;48.742;2023-05-24T08:18:32;99744.50;;;28.06;23.96
65280;BME280;51878;55.748;48.742;2023-05-24T08:23:34;99786.38;;;28.54;23.77
65280;BME280;51878;55.748;48.742;2023-05-24T08:28:37;99774.75;;;28.90;24.47
65280;BME280;51878;55.748;48.742;2023-05-24T08:33:39;99755.91;;;28.82;23.78
65280;BME280;51878;55.748;48.742;2023-05-24T08:38:42;99788.97;;;28.70;24.64
65280;BME280;51878;55.748;48.742;2023-05-24T08:43:45;99732.72;;;28.62;25.61
65280;BME280;51878;55.748;48.742;2023-05-24T08:48:48;99670.84;;;27.88;24.44
65280;BME280;51878;55.748;48.742;2023-05-24T08:53:51;99777.53;;;28.23;25.22
65280;BME280;51878;55.748;48.742;2023-05-24T08:58:54;99697.91;;;27.53;25.54
65280;BME280;51878;55.748;48.742;2023-05-24T09:03:58;99710.38;;;27.32;25.98
65280;BME280;51878;55.748;48.742;2023-05-24T09:09:02;99691.84;;;27.12;26.04
65280;BME280;51878;55.748;48.742;2023-05-24T09:14:04;99759.31;;;27.43;26.78
65280;BME280;51878;55.748;48.742;2023-05-24T09:19:07;99770.00;;;27.60;26.86
65280;BME280;51878;55.748;48.742;2023-05-24T09:24:10;99758.97;;;27.79;26.74
65280;BME280;51878;55.748;48.742;2023-05-24T09:29:13;99739.41;;;28.61;25.77
65280;BME280;51878;55.748;48.742;2023-05-24T09:34:15;99759.09;;;30.12;23.45
65280;BME280;51878;55.748;48.742;2023-05-24T09:39:18;99717.03;;;30.44;23.07
65280;BME280;51878;55.748;48.742;2023-05-24T09:44:24;99770.69;;;31.02;21.98
65280;BME280;51878;55.748;48.742;2023-05-24T09:49:29;99703.81;;;30.86;21.82
65280;BME280;51878;55.748;48.742;2023-05-24T09:54:32;99758.56;;;30.93;20.86
65280;BME280;51878;55.748;48.742;2023-05-24T09:59:34;99700.25;;;30.95;21.23
65280;BME280;51878;55.748;48.742;2023-05-24T10:04:40;99743.97;;;31.41;21.81
65280;BME280;51878;55.748;48.742;2023-05-24T10:09:43;99753.41;;;31.67;21.62
65280;BME280;51878;55.748;48.742;2023-05-24T10:14:46;99750.09;;;31.65;20.67
65280;BME280;51878;55.748;48.742;2023-05-24T10:19:49;99741.13;;;31.77;20.71
65280;BME280;51878;55.748;48.742;2023-05-24T10:24:52;99689.06;;;32.42;19.57
65280;BME280;51878;55.748;48.742;2023-05-24T10:30:13;99728.13;;;31.59;19.02
65280;BME280;51878;55.748;48.742;2023-05-24T10:35:19;99690.84;;;31.58;19.95
65280;BME280;51878;55.748;48.742;2023-05-24T10:40:22;99728.13;;;32.61;18.92
65280;BME280;51878;55.748;48.742;2023-05-24T10:50:30;99714.06;;;33.74;18.48
65280;BME280;51878;55.748;48.742;2023-05-24T10:55:33;99745.13;;;34.43;17.53
65280;BME280;51878;55.748;48.742;2023-05-24T11:00:53;99730.56;;;34.91;16.39
65280;BME280;51878;55.748;48.742;2023-05-24T11:05:57;99688.84;;;34.85;16.62
65280;BME280;51878;55.748;48.742;2023-05-24T11:11:14;99734.75;;;35.48;16.61
65280;BME280;51878;55.748;48.742;2023-05-24T11:16:36;99678.28;;;34.82;16.20
65280;BME280;51878;55.748;48.742;2023-05-24T11:21:43;99688.97;;;34.67;16.36
65280;BME280;51878;55.748;48.742;2023-05-24T11:26:46;99675.06;;;34.11;16.76
65280;BME280;51878;55.748;48.742;2023-05-24T11:31:59;99653.13;;;32.79;17.99
65280;BME280;51878;55.748;48.742;2023-05-24T11:37:09;99709.91;;;33.81;16.31
65280;BME280;51878;55.748;48.742;2023-05-24T11:42:11;99660.97;;;34.11;16.54
65280;BME280;51878;55.748;48.742;2023-05-24T11:47:14;99699.06;;;35.31;15.85
65280;BME280;51878;55.748;48.742;2023-05-24T11:52:16;99619.44;;;35.34;15.64
65280;BME280;51878;55.748;48.742;2023-05-24T11:57:24;99660.09;;;36.28;14.83
65280;BME280;51878;55.748;48.742;2023-05-24T12:02:30;99650.03;;;36.55;14.77
65280;BME280;51878;55.748;48.742;2023-05-24T12:07:33;99645.63;;;37.23;14.67
65280;BME280;51878;55.748;48.742;2023-05-24T12:12:44;99641.16;;;37.66;13.94
65280;BME280;51878;55.748;48.742;2023-05-24T12:17:47;99667.94;;;37.40;13.22
65280;BME280;51878;55.748;48.742;2023-05-24T12:22:55;99676.47;;;37.72;13.94
65280;BME280;51878;55.748;48.742;2023-05-24T12:27:57;99665.19;;;37.88;14.28
65280;BME280;51878;55.748;48.742;2023-05-24T12:32:59;99654.34;;;38.41;13.54
65280;BME280;51878;55.748;48.742;2023-05-24T12:38:02;99625.84;;;38.70;13.47
65280;BME280;51878;55.748;48.742;2023-05-24T12:43:04;99618.94;;;38.00;14.19
65280;BME280;51878;55.748;48.742;2023-05-24T12:48:07;99665.78;;;38.29;13.55
65280;BME280;51878;55.748;48.742;2023-05-24T12:53:09;99608.91;;;38.02;14.12
65280;BME280;51878;55.748;48.742;2023-05-24T12:58:12;99608.06;;;36.82;14.77
65280;BME280;51878;55.748;48.742;2023-05-24T13:03:17;99640.19;;;35.75;15.88
65280;BME280;51878;55.748;48.742;2023-05-24T13:08:19;99661.72;;;34.50;16.59
65280;BME280;51878;55.748;48.742;2023-05-24T13:13:21;99591.06;;;33.45;17.20
65280;BME280;51878;55.748;48.742;2023-05-24T13:18:25;99594.31;;;33.65;17.43
65280;BME280;51878;55.748;48.742;2023-05-24T13:23:27;99575.91;;;33.03;18.13
65280;BME280;51878;55.748;48.742;2023-05-24T13:28:30;99555.78;;;32.22;17.52
65280;BME280;51878;55.748;48.742;2023-05-24T13:33:32;99634.91;;;31.84;17.83
65280;BME280;51878;55.748;48.742;2023-05-24T13:38:34;99621.19;;;30.98;17.83
65280;BME280;51878;55.748;48.742;2023-05-24T13:43:37;99633.59;;;30.46;18.91
65280;BME280;51878;55.748;48.742;2023-05-24T13:48:39;99634.06;;;29.84;19.13
65280;BME280;51878;55.748;48.742;2023-05-24T13:53:44;99553.84;;;28.78;20.18
65280;BME280;51878;55.748;48.742;2023-05-24T13:58:48;99621.28;;;28.66;20.62
65280;BME280;51878;55.748;48.742;2023-05-24T14:03:53;99667.53;;;28.53;21.30
65280;BME280;51878;55.748;48.742;2023-05-24T14:08:56;99646.34;;;28.28;21.70
65280;BME280;51878;55.748;48.742;2023-05-24T14:13:59;99664.66;;;28.15;22.26
65280;BME280;51878;55.748;48.742;2023-05-24T14:19:05;99635.75;;;27.87;23.52
65280;BME280;51878;55.748;48.742;2023-05-24T14:24:08;99645.72;;;27.64;23.51
65280;BME280;51878;55.748;48.742;2023-05-24T14:29:10;99648.59;;;27.30;24.23
65280;BME280;51878;55.748;48.742;2023-05-24T14:34:13;99646.72;;;27.15;24.50
65280;BME280;51878;55.748;48.742;2023-05-24T14:39:15;99602.03;;;26.67;25.23
65280;BME280;51878;55.748;48.742;2023-05-24T14:44:17;99599.66;;;26.45;25.51
65280;BME280;51878;55.748;48.742;2023-05-24T14:49:20;99582.66;;;26.07;25.76
65280;BME280;51878;55.748;48.742;2023-05-24T14:54:22;99652.44;;;26.50;25.88
65280;BME280;51878;55.748;48.742;2023-05-24T14:59:24;99589.38;;;25.95;26.50
65280;BME280;51878;55.748;48.742;2023-05-24T15:04:26;99636.84;;;26.04;26.93
65280;BME280;51878;55.748;48.742;2023-05-24T15:09:29;99588.63;;;25.59;27.56
65280;BME280;51878;55.748;48.742;2023-05-24T15:14:31;99644.13;;;25.74;27.91
65280;BME280;51878;55.748;48.742;2023-05-24T15:19:33;99607.84;;;25.45;28.14
65280;BME280;51878;55.748;48.742;2023-05-24T15:24:36;99619.25;;;25.39;28.09
65280;BME280;51878;55.748;48.742;2023-05-24T15:29:39;99585.66;;;25.04;27.40
65280;BME280;51878;55.748;48.742;2023-05-24T15:34:41;99581.25;;;24.93;27.54
65280;BME280;51878;55.748;48.742;2023-05-24T15:39:43;99633.94;;;25.08;27.73
65280;BME280;51878;55.748;48.742;2023-05-24T15:44:49;99587.63;;;24.68;27.83
65280;BME280;51878;55.748;48.742;2023-05-24T15:49:51;99623.94;;;24.61;28.41
65280;BME280;51878;55.748;48.742;2023-05-24T15:54:54;99621.16;;;24.51;28.51
65280;BME280;51878;55.748;48.742;2023-05-24T15:59:56;99605.81;;;24.23;29.40
65280;BME280;51878;55.748;48.742;2023-05-24T16:04:59;99616.88;;;24.12;30.25
65280;BME280;51878;55.748;48.742;2023-05-24T16:10:01;99569.00;;;23.59;31.01
65280;BME280;51878;55.748;48.742;2023-05-24T16:15:06;99635.56;;;23.80;31.67
65280;BME280;51878;55.748;48.742;2023-05-24T16:20:09;99462.97;;;22.58;32.35
65280;BME280;51878;55.748;48.742;2023-05-24T16:25:11;99577.88;;;23.14;32.35
65280;BME280;51878;55.748;48.742;2023-05-24T16:30:14;99600.50;;;23.05;32.64
65280;BME280;51878;55.748;48.742;2023-05-24T16:35:16;99591.47;;;22.88;33.19
65280;BME280;51878;55.748;48.742;2023-05-24T16:40:22;99646.47;;;23.12;33.24
65280;BME280;51878;55.748;48.742;2023-05-24T16:45:24;99597.94;;;22.66;33.49
65280;BME280;51878;55.748;48.742;2023-05-24T16:50:26;99646.78;;;22.88;33.91
65280;BME280;51878;55.748;48.742;2023-05-24T16:55:28;99582.97;;;22.35;34.51
65280;BME280;51878;55.748;48.742;2023-05-24T17:00:31;99615.94;;;22.42;34.42
65280;BME280;51878;55.748;48.742;2023-05-24T17:05:33;99594.00;;;22.08;34.59
65280;BME280;51878;55.748;48.742;2023-05-24T17:10:35;99602.47;;;22.01;34.93
65280;BME280;51878;55.748;48.742;2023-05-24T17:15:37;99644.66;;;22.19;35.81
65280;BME280;51878;55.748;48.742;2023-05-24T17:20:40;99609.66;;;21.80;36.06
65280;BME280;51878;55.748;48.742;2023-05-24T17:25:42;99587.09;;;21.61;36.12
65280;BME280;51878;55.748;48.742;2023-05-24T17:30:45;99645.50;;;21.75;36.35
65280;BME280;51878;55.748;48.742;2023-05-24T17:35:48;99665.22;;;21.84;36.34
65280;BME280;51878;55.748;48.742;2023-05-24T17:40:56;99580.88;;;21.32;36.62
65280;BME280;51878;55.748;48.742;2023-05-24T17:46:01;99562.41;;;21.16;36.80
65280;BME280;51878;55.748;48.742;2023-05-24T17:51:06;99669.16;;;21.71;36.71
65280;BME280;51878;55.748;48.742;2023-05-24T17:56:08;99644.13;;;21.56;36.99
65280;BME280;51878;55.748;48.742;2023-05-24T18:01:11;99630.69;;;21.42;37.29
65280;BME280;51878;55.748;48.742;2023-05-24T18:06:13;99655.28;;;21.44;38.04
65280;BME280;51878;55.748;48.742;2023-05-24T18:11:16;99645.06;;;21.28;38.45
65280;BME280;51878;55.748;48.742;2023-05-24T18:16:18;99650.50;;;21.22;38.42
65280;BME280;51878;55.748;48.742;2023-05-24T18:21:20;99658.00;;;21.27;38.58
65280;BME280;51878;55.748;48.742;2023-05-24T18:26:23;99575.47;;;20.70;39.13
65280;BME280;51878;55.748;48.742;2023-05-24T18:31:25;99580.75;;;20.71;39.22
65280;BME280;51878;55.748;48.742;2023-05-24T18:36:28;99640.31;;;21.06;39.35
65280;BME280;51878;55.748;48.742;2023-05-24T18:41:35;99655.19;;;21.22;39.11
65280;BME280;51878;55.748;48.742;2023-05-24T18:46:42;99590.25;;;20.80;39.23
65280;BME280;51878;55.748;48.742;2023-05-24T18:51:45;99649.47;;;21.12;38.88
65280;BME280;51878;55.748;48.742;2023-05-24T18:56:47;99656.25;;;21.21;38.74
65280;BME280;51878;55.748;48.742;2023-05-24T19:02:02;99596.19;;;20.89;38.10
65280;BME280;51878;55.748;48.742;2023-05-24T19:07:07;99574.06;;;20.84;37.30
65280;BME280;51878;55.748;48.742;2023-05-24T19:12:10;99599.94;;;21.00;37.50
65280;BME280;51878;55.748;48.742;2023-05-24T19:17:15;99590.28;;;20.97;37.07
65280;BME280;51878;55.748;48.742;2023-05-24T19:22:17;99635.84;;;21.39;37.80
65280;BME280;51878;55.748;48.742;2023-05-24T19:27:19;99627.00;;;21.37;36.75
65280;BME280;51878;55.748;48.742;2023-05-24T19:32:22;99547.50;;;20.95;37.24
65280;BME280;51878;55.748;48.742;2023-05-24T19:37:24;99598.06;;;21.39;35.99
65280;BME280;51878;55.748;48.742;2023-05-24T19:42:27;99591.88;;;21.49;35.62
65280;BME280;51878;55.748;48.742;2023-05-24T19:47:29;99627.28;;;21.74;35.25
65280;BME280;51878;55.748;48.742;2023-05-24T19:52:32;99650.06;;;21.86;35.06
65280;BME280;51878;55.748;48.742;2023-05-24T19:57:34;99621.56;;;21.59;34.56
65280;BME280;51878;55.748;48.742;2023-05-24T20:02:36;99591.41;;;21.18;34.66
65280;BME280;51878;55.748;48.742;2023-05-24T20:07:39;99659.75;;;21.33;34.73
65280;BME280;51878;55.748;48.742;2023-05-24T20:12:41;99656.28;;;21.04;34.87
65280;BME280;51878;55.748;48.742;2023-05-24T20:17:43;99618.97;;;20.68;34.86
65280;BME280;51878;55.748;48.742;2023-05-24T20:22:49;99673.72;;;20.93;34.76
65280;BME280;51878;55.748;48.742;2023-05-24T20:27:52;99646.66;;;20.73;34.24
65280;BME280;51878;55.748;48.742;2023-05-24T20:32:54;99603.72;;;20.60;33.80
65280;BME280;51878;55.748;48.742;2023-05-24T20:37:56;99676.75;;;21.08;33.41
65280;BME280;51878;55.748;48.742;2023-05-24T20:42:59;99553.81;;;20.44;33.18
65280;BME280;51878;55.748;48.742;2023-05-24T20:48:04;99665.56;;;21.15;32.60
65280;BME280;51878;55.748;48.742;2023-05-24T20:53:06;99672.13;;;21.31;32.15
65280;BME280;51878;55.748;48.742;2023-05-24T20:58:08;99579.47;;;20.79;31.67
65280;BME280;51878;55.748;48.742;2023-05-24T21:03:11;99685.97;;;21.48;31.29
65280;BME280;51878;55.748;48.742;2023-05-24T21:08:14;99669.81;;;21.56;31.13
65280;BME280;51878;55.748;48.742;2023-05-24T21:13:16;99652.13;;;21.40;31.32
65280;BME280;51878;55.748;48.742;2023-05-24T21:18:21;99652.13;;;21.40;31.26
65280;BME280;51878;55.748;48.742;2023-05-24T21:23:23;99585.34;;;20.99;31.33
65280;BME280;51878;55.748;48.742;2023-05-24T21:28:26;99631.28;;;21.11;31.38
65280;BME280;51878;55.748;48.742;2023-05-24T21:33:28;99614.84;;;20.99;31.22
65280;BME280;51878;55.748;48.742;2023-05-24T21:38:32;99681.47;;;21.30;31.06
65280;BME280;51878;55.748;48.742;2023-05-24T21:43:39;99634.03;;;21.11;30.73
65280;BME280;51878;55.748;48.742;2023-05-24T21:48:43;99659.53;;;21.18;30.84
65280;BME280;51878;55.748;48.742;2023-05-24T21:53:45;99672.56;;;21.22;30.92
65280;BME280;51878;55.748;48.742;2023-05-24T21:58:47;99558.22;;;20.46;31.16
65280;BME280;51878;55.748;48.742;2023-05-24T22:03:49;99564.47;;;20.41;31.35
65280;BME280;51878;55.748;48.742;2023-05-24T22:08:52;99620.00;;;20.61;31.59
65280;BME280;51878;55.748;48.742;2023-05-24T22:13:54;99613.66;;;20.49;31.82
65280;BME280;51878;55.748;48.742;2023-05-24T22:18:57;99672.34;;;20.78;32.04
65280;BME280;51878;55.748;48.742;2023-05-24T22:23:59;99607.44;;;20.25;32.23
65280;BME280;51878;55.748;48.742;2023-05-24T22:29:01;99571.56;;;19.91;32.73
65280;BME280;51878;55.748;48.742;2023-05-24T22:34:06;99671.91;;;20.41;33.18
65280;BME280;51878;55.748;48.742;2023-05-24T22:39:08;99676.03;;;20.27;33.63
65280;BME280;51878;55.748;48.742;2023-05-24T22:44:11;99609.88;;;19.81;33.59
65280;BME280;51878;55.748;48.742;2023-05-24T22:49:13;99675.47;;;20.13;33.82
65280;BME280;51878;55.748;48.742;2023-05-24T22:54:20;99703.97;;;20.18;34.09
65280;BME280;51878;55.748;48.742;2023-05-24T22:59:22;99667.75;;;19.98;34.31
65280;BME280;51878;55.748;48.742;2023-05-24T23:04:25;99682.25;;;19.93;34.72
65280;BME280;51878;55.748;48.742;2023-05-24T23:09:28;99632.03;;;19.63;34.75
65280;BME280;51878;55.748;48.742;2023-05-24T23:14:35;99679.72;;;19.92;34.96
65280;BME280;51878;55.748;48.742;2023-05-24T23:19:42;99682.34;;;19.98;35.09
65280;BME280;51878;55.748;48.742;2023-05-24T23:24:45;99640.19;;;19.69;34.69
65280;BME280;51878;55.748;48.742;2023-05-24T23:29:50;99607.38;;;19.44;35.11
65280;BME280;51878;55.748;48.742;2023-05-24T23:34:52;99695.88;;;20.00;35.02
65280;BME280;51878;55.748;48.742;2023-05-24T23:39:54;99699.69;;;19.99;35.13
65280;BME280;51878;55.748;48.742;2023-05-24T23:44:57;99686.56;;;19.89;34.97
65280;BME280;51878;55.748;48.742;2023-05-24T23:49:59;99691.81;;;19.91;34.61
65280;BME280;51878;55.748;48.742;2023-05-24T23:55:02;99706.88;;;20.00;34.73
